createdAt,value
2023-08-15T00:00:09.415Z,23.45
2023-08-15T00:02:37.892Z,23.49
2023-08-15T00:05:09.250Z,23.54
2023-08-15T00:07:37.717Z,23.78
2023-08-15T00:10:06.791Z,24.37
2023-08-15T00:12:35.324Z,24.65
2023-08-15T00:15:04.219Z,24.74
2023-08-15T00:17:32.979Z,24.74
2023-08-15T00:20:01.366Z,24.69
2023-08-15T00:22:31.124Z,24.72
2023-08-15T00:24:59.679Z,24.74
2023-08-15T00:27:28.063Z,24.72
2023-08-15T00:29:56.455Z,24.73
2023-08-15T00:32:24.830Z,24.64
2023-08-15T00:34:53.432Z,24.65
2023-08-15T00:37:22.059Z,24.66
2023-08-15T00:39:52.132Z,24.62
2023-08-15T00:42:20.630Z,24.55
2023-08-15T00:44:49.187Z,24.42
2023-08-15T00:47:17.833Z,24.35
2023-08-15T00:49:46.953Z,24.37
2023-08-15T00:52:17.470Z,24.36
2023-08-15T00:54:49.127Z,24.33
2023-08-15T00:57:20.542Z,24.29
2023-08-15T00:59:49.432Z,24.25
2023-08-15T01:02:17.956Z,24.30
2023-08-15T01:04:46.885Z,24.32
2023-08-15T01:07:19.334Z,24.24
2023-08-15T01:09:48.091Z,24.24
2023-08-15T01:12:27.803Z,24.18
2023-08-15T01:15:02.926Z,24.15
2023-08-15T01:17:37.895Z,24.06
2023-08-15T01:20:09.934Z,24.08
2023-08-15T01:22:43.448Z,24.05
2023-08-15T01:25:13.318Z,23.99
2023-08-15T01:27:41.692Z,24.05
2023-08-15T01:30:11.020Z,24.01
2023-08-15T01:32:48.086Z,23.98
2023-08-15T01:35:21.967Z,23.91
2023-08-15T01:37:56.841Z,23.88
2023-08-15T01:40:29.635Z,23.85
2023-08-15T01:42:59.814Z,23.82
2023-08-15T01:45:29.351Z,23.77
2023-08-15T01:47:58.077Z,23.84
2023-08-15T01:50:26.724Z,23.84
2023-08-15T01:52:55.469Z,23.78
2023-08-15T01:55:23.803Z,23.82
2023-08-15T01:57:53.650Z,23.80
2023-08-15T02:00:22.309Z,23.86
2023-08-15T02:02:51.086Z,23.81
2023-08-15T02:05:20.970Z,23.81
2023-08-15T02:07:49.792Z,23.85
2023-08-15T02:10:18.322Z,23.88
2023-08-15T02:12:46.739Z,23.84
2023-08-15T02:15:16.601Z,23.82
2023-08-15T02:17:44.978Z,23.80
2023-08-15T02:20:14.184Z,23.84
2023-08-15T02:22:42.726Z,23.83
2023-08-15T02:25:11.330Z,23.78
2023-08-15T02:27:39.796Z,23.81
2023-08-15T02:30:09.643Z,23.73
2023-08-15T02:32:39.499Z,23.74
2023-08-15T02:35:09.119Z,23.71
2023-08-15T02:37:37.441Z,23.72
2023-08-15T02:40:07.532Z,23.69
2023-08-15T02:42:35.894Z,23.65
2023-08-15T02:45:04.552Z,23.66
2023-08-15T02:47:33.327Z,23.66
2023-08-15T02:50:03.135Z,23.68
2023-08-15T02:52:31.723Z,23.62
2023-08-15T02:55:00.208Z,23.56
2023-08-15T02:57:28.658Z,23.52
2023-08-15T02:59:56.986Z,23.54
2023-08-15T03:02:25.897Z,23.53
2023-08-15T03:04:54.446Z,23.53
2023-08-15T03:07:25.322Z,23.50
2023-08-15T03:09:54.132Z,23.48
2023-08-15T03:12:22.495Z,23.41
2023-08-15T03:14:50.907Z,23.38
2023-08-15T03:17:20.762Z,23.32
2023-08-15T03:19:49.330Z,23.40
2023-08-15T03:22:17.695Z,23.32
2023-08-15T03:24:47.777Z,23.36
2023-08-15T03:27:16.276Z,23.37
2023-08-15T03:29:44.678Z,23.40
2023-08-15T03:32:13.226Z,23.45
2023-08-15T03:34:41.826Z,23.45
2023-08-15T03:37:10.225Z,23.48
2023-08-15T03:39:38.580Z,23.49
2023-08-15T03:42:08.471Z,23.50
2023-08-15T03:44:37.168Z,23.53
2023-08-15T03:47:05.760Z,23.61
2023-08-15T03:49:34.255Z,23.70
2023-08-15T03:52:02.796Z,23.73
2023-08-15T03:54:31.172Z,23.72
2023-08-15T03:56:59.667Z,23.76
2023-08-15T03:59:29.440Z,23.87
2023-08-15T04:01:59.274Z,23.92
2023-08-15T04:04:27.761Z,23.95
2023-08-15T04:06:56.185Z,23.96
2023-08-15T04:09:24.561Z,23.99
2023-08-15T04:11:52.967Z,23.92
2023-08-15T04:14:21.463Z,23.94
2023-08-15T04:16:51.269Z,23.91
2023-08-15T04:19:19.553Z,23.97
2023-08-15T04:21:47.985Z,23.96
2023-08-15T04:24:16.356Z,24.05
2023-08-15T04:26:43.661Z,24.08
2023-08-15T04:29:12.214Z,24.13
2023-08-15T04:31:41.078Z,24.24
2023-08-15T04:34:10.869Z,24.40
2023-08-15T04:36:44.997Z,24.51
2023-08-15T04:39:13.343Z,24.83
2023-08-15T04:41:43.969Z,24.84
2023-08-15T04:44:13.142Z,24.97
2023-08-15T04:46:41.490Z,25.15
2023-08-15T04:49:11.325Z,25.42
2023-08-15T04:51:39.876Z,25.34
2023-08-15T04:54:08.431Z,25.43
2023-08-15T04:56:36.802Z,25.70
2023-08-15T04:59:05.261Z,26.60
2023-08-15T05:01:34.868Z,26.41
2023-08-15T05:04:03.289Z,26.68
2023-08-15T05:06:33.490Z,26.58
2023-08-15T05:09:01.874Z,27.49
2023-08-15T05:11:30.375Z,26.84
2023-08-15T05:14:01.689Z,27.34
2023-08-15T05:16:31.240Z,27.85
2023-08-15T05:18:59.609Z,27.32
2023-08-15T05:21:28.618Z,27.12
2023-08-15T05:23:58.603Z,26.38
2023-08-15T05:26:26.995Z,26.93
2023-08-15T05:28:55.390Z,28.21
2023-08-15T05:31:24.005Z,28.09
2023-08-15T05:33:52.455Z,27.92
2023-08-15T05:36:20.993Z,28.13
2023-08-15T05:38:49.478Z,27.86
2023-08-15T05:41:19.370Z,27.57
2023-08-15T05:43:47.769Z,27.81
2023-08-15T05:46:16.132Z,28.26
2023-08-15T05:48:44.567Z,27.99
2023-08-15T05:51:13.020Z,27.65
2023-08-15T05:53:41.469Z,27.24
2023-08-15T05:56:09.776Z,26.68
2023-08-15T05:58:42.205Z,27.15
2023-08-15T06:01:10.667Z,28.19
2023-08-15T06:03:51.798Z,28.29
2023-08-15T06:06:21.311Z,28.15
2023-08-15T06:08:50.060Z,27.58
2023-08-15T06:11:18.523Z,27.92
2023-08-15T06:13:48.526Z,26.91
2023-08-15T06:16:17.068Z,27.24
2023-08-15T06:18:45.439Z,26.91
2023-08-15T06:21:13.851Z,27.91
2023-08-15T06:23:42.412Z,28.26
2023-08-15T06:26:10.800Z,27.66
2023-08-15T06:28:39.186Z,27.46
2023-08-15T06:31:08.971Z,27.09
2023-08-15T06:33:37.418Z,26.95
2023-08-15T06:36:06.063Z,27.61
2023-08-15T06:38:34.485Z,27.57
2023-08-15T06:41:03.942Z,27.27
2023-08-15T06:43:32.287Z,27.01
2023-08-15T06:46:00.767Z,26.37
2023-08-15T06:48:30.532Z,26.04
2023-08-15T06:50:58.984Z,25.86
2023-08-15T06:53:27.829Z,25.83
2023-08-15T06:55:56.167Z,25.83
2023-08-15T06:58:24.632Z,26.43
2023-08-15T07:00:53.389Z,26.27
2023-08-15T07:03:23.902Z,26.07
2023-08-15T07:05:54.516Z,26.28
2023-08-15T07:08:22.950Z,26.30
2023-08-15T07:10:56.665Z,26.55
2023-08-15T07:13:25.376Z,26.82
2023-08-15T07:15:57.376Z,26.59
2023-08-15T07:18:26.328Z,26.26
2023-08-15T07:20:56.133Z,26.26
2023-08-15T07:23:24.607Z,26.37
2023-08-15T07:25:53.146Z,26.54
2023-08-15T07:28:21.722Z,26.80
2023-08-15T07:30:50.421Z,27.31
2023-08-15T07:33:19.018Z,27.03
2023-08-15T07:35:47.459Z,27.43
2023-08-15T07:38:17.290Z,27.88
2023-08-15T07:40:48.329Z,27.71
2023-08-15T07:43:19.907Z,27.19
2023-08-15T07:45:48.339Z,27.06
2023-08-15T07:48:16.703Z,27.13
2023-08-15T07:50:45.381Z,26.92
2023-08-15T07:53:14.113Z,26.92
2023-08-15T07:55:44.135Z,27.10
2023-08-15T07:58:12.807Z,27.02
2023-08-15T08:00:41.374Z,27.14
2023-08-15T08:03:09.907Z,27.04
2023-08-15T08:05:38.384Z,27.14
2023-08-15T08:08:07.254Z,27.18
2023-08-15T08:10:37.770Z,27.40
2023-08-15T08:13:07.977Z,27.21
2023-08-15T08:15:36.447Z,27.71
2023-08-15T08:18:05.239Z,27.71
2023-08-15T08:20:33.653Z,28.00
2023-08-15T08:23:02.051Z,28.00
2023-08-15T08:25:30.583Z,28.13
2023-08-15T08:27:59.091Z,27.19
2023-08-15T08:30:30.112Z,27.14
2023-08-15T08:32:59.809Z,27.09
2023-08-15T08:35:28.350Z,26.83
2023-08-15T08:37:58.180Z,26.87
2023-08-15T08:40:26.712Z,26.84
2023-08-15T08:42:55.113Z,27.11
2023-08-15T08:45:28.063Z,27.35
2023-08-15T08:47:58.554Z,27.69
2023-08-15T08:50:28.872Z,27.52
2023-08-15T08:52:57.553Z,27.57
2023-08-15T08:55:26.779Z,27.60
2023-08-15T08:57:55.947Z,28.06
2023-08-15T09:00:30.061Z,28.50
2023-08-15T09:03:00.817Z,28.24
2023-08-15T09:05:30.073Z,28.21
2023-08-15T09:07:59.329Z,28.38
2023-08-15T09:10:27.798Z,28.40
2023-08-15T09:13:00.912Z,28.16
2023-08-15T09:15:31.455Z,28.38
2023-08-15T09:18:06.294Z,27.97
2023-08-15T09:20:35.943Z,28.14
2023-08-15T09:23:06.117Z,28.26
2023-08-15T09:25:38.310Z,28.38
2023-08-15T09:28:08.289Z,28.10
2023-08-15T09:30:36.794Z,27.99
2023-08-15T09:33:07.555Z,28.19
2023-08-15T09:35:42.668Z,28.44
2023-08-15T09:38:17.746Z,28.22
2023-08-15T09:40:49.728Z,27.86
2023-08-15T09:43:18.331Z,28.33
2023-08-15T09:45:46.730Z,28.55
2023-08-15T09:48:18.196Z,28.65
2023-08-15T09:50:49.998Z,27.85
2023-08-15T09:53:18.479Z,28.06
2023-08-15T09:55:46.889Z,28.42
2023-08-15T09:58:15.413Z,28.68
2023-08-15T10:00:44.606Z,28.55
2023-08-15T10:03:21.039Z,28.70
2023-08-15T10:05:56.278Z,28.63
2023-08-15T10:08:25.805Z,28.84
2023-08-15T10:10:55.702Z,28.62
2023-08-15T10:13:27.385Z,28.53
2023-08-15T10:15:57.217Z,28.46
2023-08-15T10:18:27.682Z,28.60
2023-08-15T10:20:57.509Z,28.49
2023-08-15T10:23:32.191Z,28.73
2023-08-15T10:26:01.952Z,28.22
2023-08-15T10:28:31.364Z,28.56
2023-08-15T10:30:59.999Z,28.76
2023-08-15T10:33:33.006Z,28.81
2023-08-15T10:36:09.649Z,28.81
2023-08-15T10:38:42.580Z,28.87
2023-08-15T10:41:15.698Z,29.13
2023-08-15T10:43:49.532Z,28.77
2023-08-15T10:46:20.150Z,28.42
2023-08-15T10:49:03.430Z,28.51
2023-08-15T10:51:34.027Z,28.38
2023-08-15T10:54:04.409Z,28.52
2023-08-15T10:56:36.520Z,28.14
2023-08-15T10:59:08.862Z,28.27
2023-08-15T11:01:39.453Z,28.23
2023-08-15T11:04:11.733Z,28.49
2023-08-15T11:06:43.806Z,28.58
2023-08-15T11:09:13.054Z,28.43
2023-08-15T11:11:41.747Z,28.17
2023-08-15T11:14:18.174Z,28.13
2023-08-15T11:16:47.156Z,28.10
2023-08-15T11:19:18.962Z,28.11
2023-08-15T11:21:48.856Z,28.03
2023-08-15T11:24:17.376Z,28.58
2023-08-15T11:26:46.159Z,28.73
2023-08-15T11:29:14.838Z,28.87
2023-08-15T11:31:43.753Z,28.88
2023-08-15T11:34:13.567Z,29.39
2023-08-15T11:36:43.704Z,29.05
2023-08-15T11:39:15.654Z,28.98
2023-08-15T11:41:46.304Z,28.87
2023-08-15T11:44:14.669Z,29.08
2023-08-15T11:49:19.150Z,29.04
2023-08-15T11:51:49.572Z,29.16
2023-08-15T11:54:18.077Z,29.01
2023-08-15T11:56:50.759Z,28.91
2023-08-15T11:59:19.765Z,28.59
2023-08-15T12:01:49.297Z,28.39
2023-08-15T12:04:18.889Z,27.91
2023-08-15T12:06:48.860Z,27.53
2023-08-15T12:09:17.546Z,27.57
2023-08-15T12:11:46.336Z,27.55
2023-08-15T12:14:21.204Z,27.55
2023-08-15T12:16:49.888Z,27.26
2023-08-15T12:19:22.993Z,27.38
2023-08-15T12:21:54.925Z,27.37
2023-08-15T12:24:24.296Z,27.17
2023-08-15T12:26:52.701Z,27.26
2023-08-15T12:30:11.054Z,27.41
2023-08-15T12:32:09.803Z,27.26
2023-08-15T12:34:38.361Z,27.48
2023-08-15T12:37:08.280Z,27.21
2023-08-15T12:39:36.861Z,27.25
2023-08-15T12:42:05.545Z,27.35
2023-08-15T12:44:34.187Z,27.24
2023-08-15T12:47:02.656Z,27.15
2023-08-15T12:49:31.008Z,27.13
2023-08-15T12:51:59.482Z,27.23
2023-08-15T12:54:29.313Z,27.29
2023-08-15T12:56:57.795Z,27.38
2023-08-15T12:59:26.230Z,27.35
2023-08-15T13:01:54.609Z,27.49
2023-08-15T13:04:23.126Z,27.49
2023-08-15T13:06:51.515Z,27.44
2023-08-15T13:09:20.337Z,27.55
2023-08-15T13:11:50.283Z,27.39
2023-08-15T13:14:20.623Z,27.34
2023-08-15T13:16:51.221Z,27.45
2023-08-15T13:19:19.705Z,27.36
2023-08-15T13:21:48.044Z,27.26
2023-08-15T13:24:16.525Z,26.93
2023-08-15T13:26:44.911Z,26.96
2023-08-15T13:29:14.809Z,26.95
2023-08-15T13:31:43.317Z,26.89
2023-08-15T13:34:12.023Z,26.99
2023-08-15T13:36:42.324Z,26.95
2023-08-15T13:39:11.782Z,26.99
2023-08-15T13:41:40.118Z,27.18
2023-08-15T13:44:08.774Z,27.13
2023-08-15T13:46:39.407Z,27.14
2023-08-15T13:49:07.756Z,27.14
2023-08-15T13:51:36.260Z,27.09
2023-08-15T13:54:06.167Z,27.09
2023-08-15T13:56:34.490Z,27.10
2023-08-15T13:59:02.984Z,27.05
2023-08-15T14:01:33.545Z,27.09
2023-08-15T14:04:03.540Z,27.17
2023-08-15T14:06:31.905Z,27.09
2023-08-15T14:09:00.741Z,27.14
2023-08-15T14:11:29.426Z,27.09
2023-08-15T14:13:57.750Z,27.14
2023-08-15T14:16:26.273Z,27.26
2023-08-15T14:18:54.788Z,27.18
2023-08-15T14:21:25.517Z,26.97
2023-08-15T14:23:54.182Z,26.97
2023-08-15T14:26:22.568Z,26.94
2023-08-15T14:28:51.012Z,27.13
2023-08-15T14:31:19.528Z,27.05
2023-08-15T14:33:47.914Z,27.04
2023-08-15T14:36:16.433Z,26.94
2023-08-15T14:38:46.327Z,26.85
2023-08-15T14:41:14.803Z,26.87
2023-08-15T14:43:43.222Z,26.96
2023-08-15T14:46:11.667Z,26.88
2023-08-15T14:48:40.077Z,26.90
2023-08-15T14:51:08.608Z,26.91
2023-08-15T14:53:37.105Z,26.93
2023-08-15T14:56:08.107Z,26.86
2023-08-15T14:58:36.792Z,26.97
2023-08-15T15:01:09.914Z,26.94
2023-08-15T15:03:39.942Z,26.90
2023-08-15T15:06:08.699Z,26.96
2023-08-15T15:08:37.338Z,26.94
2023-08-15T15:11:07.663Z,26.82
2023-08-15T15:13:36.038Z,26.86
2023-08-15T15:16:04.686Z,26.88
2023-08-15T15:18:33.326Z,26.77
2023-08-15T15:21:02.401Z,26.72
2023-08-15T15:23:31.631Z,26.79
2023-08-15T15:26:00.184Z,26.74
2023-08-15T15:28:30.072Z,26.68
2023-08-15T15:30:59.419Z,26.59
2023-08-15T15:33:30.595Z,26.65
2023-08-15T15:35:59.124Z,26.73
2023-08-15T15:38:27.631Z,26.72
2023-08-15T15:40:56.123Z,26.78
2023-08-15T15:43:24.744Z,26.79
2023-08-15T15:45:55.757Z,26.73
2023-08-15T15:48:24.409Z,26.69
2023-08-15T15:50:53.630Z,26.64
2023-08-15T15:53:22.271Z,26.55
2023-08-15T15:55:51.045Z,26.58
2023-08-15T15:58:19.697Z,26.47
2023-08-15T16:00:49.315Z,26.34
2023-08-15T16:03:19.491Z,26.34
2023-08-15T16:05:47.971Z,26.25
2023-08-15T16:08:16.621Z,26.20
2023-08-15T16:10:45.228Z,26.19
2023-08-15T16:13:14.338Z,26.21
2023-08-15T16:15:43.343Z,26.11
2023-08-15T16:18:11.781Z,26.08
2023-08-15T16:20:42.713Z,26.06
2023-08-15T16:23:11.136Z,25.99
2023-08-15T16:25:39.547Z,25.92
2023-08-15T16:28:08.413Z,25.92
2023-08-15T16:30:36.878Z,25.97
2023-08-15T16:33:05.719Z,25.90
2023-08-15T16:35:34.615Z,25.87
2023-08-15T16:38:04.660Z,25.78
2023-08-15T16:40:33.144Z,25.80
2023-08-15T16:43:16.176Z,25.83
2023-08-15T16:45:45.704Z,25.81
2023-08-15T16:48:16.058Z,25.68
2023-08-15T16:50:44.622Z,25.64
2023-08-15T16:53:14.505Z,25.58
2023-08-15T16:55:44.185Z,25.55
2023-08-15T16:58:15.043Z,25.52
2023-08-15T17:00:43.516Z,25.44
2023-08-15T17:03:12.155Z,25.45
2023-08-15T17:05:40.756Z,25.47
2023-08-15T17:08:09.686Z,25.47
2023-08-15T17:10:40.008Z,25.47
2023-08-15T17:13:08.423Z,25.40
2023-08-15T17:15:36.955Z,25.34
2023-08-15T17:18:05.852Z,25.31
2023-08-15T17:20:34.825Z,25.39
2023-08-15T17:23:03.257Z,25.35
2023-08-15T17:25:31.730Z,25.35
2023-08-15T17:28:01.624Z,25.30
2023-08-15T17:30:30.236Z,25.26
2023-08-15T17:32:58.780Z,25.23
2023-08-15T17:35:27.497Z,25.17
2023-08-15T17:37:55.882Z,25.14
2023-08-15T17:40:24.399Z,25.16
2023-08-15T17:42:52.911Z,25.11
2023-08-15T17:45:22.773Z,25.08
2023-08-15T17:47:51.457Z,25.02
2023-08-15T17:50:20.036Z,25.05
2023-08-15T17:52:49.128Z,25.06
2023-08-15T17:55:18.009Z,25.01
2023-08-15T17:57:48.296Z,24.99
2023-08-15T18:00:18.068Z,25.06
2023-08-15T18:02:49.018Z,25.11
2023-08-15T18:05:17.544Z,25.07
2023-08-15T18:07:45.963Z,25.07
2023-08-15T18:10:14.326Z,24.98
2023-08-15T18:12:42.736Z,24.84
2023-08-15T18:15:13.442Z,24.76
2023-08-15T18:17:53.760Z,24.70
2023-08-15T18:23:12.355Z,24.61
2023-08-15T18:25:41.518Z,24.56
2023-08-15T18:28:11.313Z,24.61
2023-08-15T18:30:40.646Z,24.55
2023-08-15T18:33:12.776Z,24.50
2023-08-15T18:35:43.288Z,24.42
2023-08-15T18:38:12.289Z,24.40
2023-08-15T18:40:41.761Z,24.44
2023-08-15T18:43:10.696Z,24.46
2023-08-15T18:45:45.285Z,24.34
2023-08-15T18:48:18.952Z,24.30
2023-08-15T18:50:47.875Z,24.27
2023-08-15T18:53:16.371Z,24.28
2023-08-15T18:55:44.868Z,24.20
2023-08-15T18:58:13.774Z,24.22
2023-08-15T19:00:44.209Z,24.21
2023-08-15T19:03:13.958Z,24.17
2023-08-15T19:05:47.704Z,24.11
2023-08-15T19:08:16.250Z,24.06
2023-08-15T19:10:45.208Z,24.10
2023-08-15T19:13:14.351Z,24.06
2023-08-15T19:15:43.239Z,24.04
2023-08-15T19:18:12.584Z,23.96
2023-08-15T19:20:42.717Z,23.96
2023-08-15T19:23:12.876Z,23.97
2023-08-15T19:25:41.306Z,23.94
2023-08-15T19:28:09.819Z,23.80
2023-08-15T19:30:40.995Z,23.78
2023-08-15T19:33:09.398Z,23.74
2023-08-15T19:35:40.001Z,23.76
2023-08-15T19:38:08.709Z,23.72
2023-08-15T19:40:39.191Z,23.71
2023-08-15T19:43:07.712Z,23.69
2023-08-15T19:45:36.348Z,23.62
2023-08-15T19:48:05.386Z,23.57
2023-08-15T19:50:33.808Z,23.56
2023-08-15T19:53:02.393Z,23.52
2023-08-15T19:55:33.796Z,23.54
2023-08-15T19:58:05.752Z,23.52
2023-08-15T20:00:34.174Z,23.51
2023-08-15T20:03:02.773Z,23.54
2023-08-15T20:05:31.236Z,23.45
2023-08-15T20:08:00.083Z,23.48
2023-08-15T20:10:29.588Z,23.44
2023-08-15T20:12:58.342Z,23.42
2023-08-15T20:15:28.418Z,23.42
2023-08-15T20:17:56.953Z,23.45
2023-08-15T20:20:25.642Z,23.39
2023-08-15T20:22:54.196Z,23.39
2023-08-15T20:25:22.615Z,23.35
2023-08-15T20:27:51.229Z,23.38
2023-08-15T20:30:20.056Z,23.39
2023-08-15T20:32:49.962Z,23.38
2023-08-15T20:35:18.509Z,23.40
2023-08-15T20:37:47.628Z,23.47
2023-08-15T20:40:16.905Z,23.46
2023-08-15T20:42:45.355Z,23.42
2023-08-15T20:45:15.067Z,23.39
2023-08-15T20:47:43.585Z,23.32
2023-08-15T20:50:13.688Z,23.34
2023-08-15T20:52:42.021Z,23.37
2023-08-15T20:55:14.655Z,23.40
2023-08-15T20:57:43.195Z,23.46
2023-08-15T21:00:12.728Z,23.49
2023-08-15T21:02:41.333Z,23.50
2023-08-15T21:05:13.681Z,23.48
2023-08-15T21:07:43.656Z,23.57
2023-08-15T21:10:12.354Z,23.56
2023-08-15T21:12:40.637Z,23.58
2023-08-15T21:15:09.943Z,23.45
2023-08-15T21:17:38.720Z,23.44
2023-08-15T21:20:09.691Z,23.42
2023-08-15T21:22:38.124Z,23.39
2023-08-15T21:25:08.854Z,23.38
2023-08-15T21:27:37.200Z,23.44
2023-08-15T21:30:06.225Z,23.45
2023-08-15T21:32:34.650Z,23.41
2023-08-15T21:35:02.948Z,23.42
2023-08-15T21:37:31.427Z,23.46
2023-08-15T21:39:59.736Z,23.44
2023-08-15T21:42:32.102Z,23.51
2023-08-15T21:45:02.141Z,23.47
2023-08-15T21:47:30.531Z,23.51
2023-08-15T21:49:58.805Z,23.61
2023-08-15T21:52:27.067Z,23.63
2023-08-15T21:54:55.445Z,23.55
2023-08-15T21:57:24.141Z,23.47
2023-08-15T21:59:54.101Z,23.44
2023-08-15T22:02:22.475Z,23.44
2023-08-15T22:04:50.730Z,23.44
2023-08-15T22:07:18.977Z,23.56
2023-08-15T22:09:47.210Z,23.54
2023-08-15T22:12:15.626Z,23.56
2023-08-15T22:14:43.970Z,23.59
2023-08-15T22:17:13.889Z,23.51
2023-08-15T22:19:42.320Z,23.43
2023-08-15T22:22:10.659Z,23.44
2023-08-15T22:24:38.936Z,23.46
2023-08-15T22:27:07.860Z,23.58
2023-08-15T22:29:36.124Z,23.63
2023-08-15T22:32:04.647Z,23.70
2023-08-15T22:34:34.391Z,23.81
2023-08-15T22:37:02.648Z,23.93
2023-08-15T22:39:30.963Z,24.07
2023-08-15T22:41:59.482Z,24.14
2023-08-15T22:44:28.152Z,24.30
2023-08-15T22:46:56.437Z,24.37
2023-08-15T22:49:24.706Z,24.41
2023-08-15T22:51:54.453Z,24.37
2023-08-15T22:54:22.687Z,24.42
2023-08-15T22:56:51.010Z,24.38
2023-08-15T22:59:19.258Z,24.41
2023-08-15T23:01:47.720Z,24.42
2023-08-15T23:04:16.375Z,24.42
2023-08-15T23:06:44.734Z,24.43
2023-08-15T23:09:14.537Z,24.41
2023-08-15T23:11:42.853Z,24.40
2023-08-15T23:14:11.280Z,24.43
2023-08-15T23:16:39.747Z,24.46
2023-08-15T23:19:08.231Z,24.42
2023-08-15T23:21:36.565Z,24.40
2023-08-15T23:24:06.335Z,24.41
2023-08-15T23:26:36.586Z,24.51
2023-08-15T23:29:06.615Z,24.48
2023-08-15T23:31:36.378Z,24.57
2023-08-15T23:34:05.666Z,24.61
2023-08-15T23:36:34.806Z,24.64
2023-08-15T23:39:05.585Z,24.72
2023-08-15T23:41:35.437Z,24.72
2023-08-15T23:44:03.835Z,24.76
2023-08-15T23:46:32.143Z,24.75
2023-08-15T23:49:00.864Z,24.71
2023-08-15T23:51:31.077Z,24.78
2023-08-15T23:53:59.542Z,24.82
2023-08-15T23:56:27.976Z,24.87
2023-08-15T23:58:57.810Z,24.91
